Time;durP1;ratioP1;P1;durP2;ratioP2;P2;SDS_P1;SDS_P2;PMS_P1;PMS_P2;Temp;Humidity;BMP_temperature;BMP_pressure;BME280_temperature;BME280_humidity;BME280_pressure;Samples;Min_cycle;Max_cycle;Signal;HPM_P1;HPM_P2
2022/10/28 00:05:34;;;;;;;3.17;2.50;;;;;;;19.78;63.23;97799.41;10418904;28;20057;-61
2022/10/28 00:11:01;;;;;;;3.10;2.50;;;;;;;19.77;63.24;97795.91;10418353;28;20068;-61
2022/10/28 00:16:26;;;;;;;3.65;2.50;;;;;;;19.77;63.23;97797.81;10424739;28;20057;-62
2022/10/28 00:21:46;;;;;;;3.28;2.20;;;;;;;19.77;63.30;97803.22;10418014;28;20591;-61
2022/10/28 00:27:05;;;;;;;2.90;2.60;;;;;;;19.75;63.30;97798.09;10419379;28;20057;-61
2022/10/28 00:32:28;;;;;;;5.07;2.70;;;;;;;19.74;63.19;97793.81;10404677;28;20432;-61
2022/10/28 00:37:47;;;;;;;3.97;2.65;;;;;;;19.74;63.28;97800.03;10418151;28;20452;-61
2022/10/28 00:43:10;;;;;;;3.00;2.40;;;;;;;19.74;63.28;97791.13;10414956;28;20053;-61
2022/10/28 00:48:29;;;;;;;2.63;2.40;;;;;;;19.73;63.28;97803.00;10414736;28;20056;-61
2022/10/28 00:53:50;;;;;;;2.33;2.13;;;;;;;19.72;63.26;97801.44;10417775;28;20053;-61
2022/10/28 00:59:27;;;;;;;3.33;2.50;;;;;;;19.72;63.22;97802.22;10427762;28;20076;-61
2022/10/28 01:04:46;;;;;;;3.03;2.50;;;;;;;19.71;63.27;97800.59;10401834;28;20057;-61
2022/10/28 01:10:07;;;;;;;3.35;2.50;;;;;;;19.71;63.34;97792.50;10416116;28;20839;-61
2022/10/28 01:16:00;;;;;;;3.83;2.50;;;;;;;19.70;63.31;97784.69;10442676;28;20084;-61
2022/10/28 01:21:46;;;;;;;2.85;2.25;;;;;;;19.70;63.28;97782.78;10414163;28;20057;-61
2022/10/28 01:27:17;;;;;;;3.60;2.55;;;;;;;19.68;63.30;97793.09;10415219;28;20057;-61
2022/10/28 01:33:22;;;;;;;2.97;2.35;;;;;;;19.68;63.33;97787.69;10418507;28;20058;-61
2022/10/28 01:38:52;;;;;;;2.67;2.08;;;;;;;19.68;63.37;97792.25;10356156;28;20054;-61
2022/10/28 01:44:25;;;;;;;2.25;2.05;;;;;;;19.66;63.41;97791.75;10412374;28;20492;-61
2022/10/28 01:49:55;;;;;;;2.30;2.10;;;;;;;19.67;63.40;97793.38;10408791;28;20050;-61
2022/10/28 01:55:17;;;;;;;2.40;2.10;;;;;;;19.66;63.36;97784.47;10414726;28;20057;-61
2022/10/28 02:00:37;;;;;;;2.33;2.13;;;;;;;19.65;63.46;97784.78;10417278;28;20104;-62
2022/10/28 02:05:59;;;;;;;2.95;2.30;;;;;;;19.66;63.45;97770.13;10413826;28;20555;-61
2022/10/28 02:11:28;;;;;;;2.30;2.00;;;;;;;19.64;63.47;97767.75;10413512;28;20058;-61
2022/10/28 02:16:53;;;;;;;2.38;2.00;;;;;;;19.64;63.50;97764.22;10403383;28;20504;-61
2022/10/28 02:22:20;;;;;;;2.20;2.00;;;;;;;19.63;63.46;97749.91;10399181;28;20058;-60
2022/10/28 02:27:46;;;;;;;2.55;2.22;;;;;;;19.62;63.53;97747.50;10416727;28;20045;-61
2022/10/28 02:33:09;;;;;;;2.38;1.95;;;;;;;19.62;63.48;97751.03;10417140;28;20512;-60
2022/10/28 02:38:38;;;;;;;2.17;1.98;;;;;;;19.61;63.51;97754.03;10413087;28;20049;-61
2022/10/28 02:44:02;;;;;;;2.40;2.20;;;;;;;19.62;63.53;97758.31;10417984;28;20057;-61
2022/10/28 02:49:22;;;;;;;2.15;1.95;;;;;;;19.60;63.58;97755.94;10400661;28;20068;-61
2022/10/28 02:54:55;;;;;;;2.60;1.90;;;;;;;19.60;63.49;97764.06;10413324;28;20053;-61
2022/10/28 03:00:18;;;;;;;2.10;1.90;;;;;;;19.60;63.49;97772.16;10418694;28;20062;-61
2022/10/28 03:05:37;;;;;;;2.30;2.10;;;;;;;19.58;63.50;97768.94;10426303;28;20382;-61
2022/10/28 03:10:56;;;;;;;2.50;2.00;;;;;;;19.58;63.53;97760.03;10418996;28;20054;-61
2022/10/28 03:16:16;;;;;;;3.60;2.20;;;;;;;19.58;63.51;97760.03;10436706;28;20049;-61
2022/10/28 03:21:35;;;;;;;2.25;1.90;;;;;;;19.56;63.48;97747.63;10412701;28;20057;-62
2022/10/28 03:26:54;;;;;;;2.70;1.95;;;;;;;19.55;63.49;97748.72;10412842;28;20417;-61
2022/10/28 03:32:13;;;;;;;1.77;1.67;;;;;;;19.55;63.49;97746.03;10424175;28;20061;-62
2022/10/28 03:37:33;;;;;;;2.10;1.90;;;;;;;19.55;63.58;97742.53;10401103;28;20057;-61
2022/10/28 03:42:52;;;;;;;1.95;1.75;;;;;;;19.54;63.53;97740.91;10425380;28;20053;-61
2022/10/28 03:48:12;;;;;;;1.73;1.63;;;;;;;19.54;63.56;97740.91;10394248;28;20088;-61
2022/10/28 03:53:31;;;;;;;2.58;1.90;;;;;;;19.53;63.70;97733.91;10432565;28;20527;-61
2022/10/28 03:58:50;;;;;;;1.95;1.60;;;;;;;19.53;63.56;97733.91;10421991;28;20072;-61
2022/10/28 04:04:10;;;;;;;2.70;1.92;;;;;;;19.52;63.56;97732.31;10432214;28;20054;-62
2022/10/28 04:09:29;;;;;;;1.90;1.70;;;;;;;19.52;63.61;97735.00;10418399;28;20058;-61
2022/10/28 04:14:48;;;;;;;1.48;1.38;;;;;;;19.51;63.68;97728.00;10439885;28;20049;-61
2022/10/28 04:20:08;;;;;;;1.75;1.65;;;;;;;19.50;63.71;97724.53;10418674;28;20057;-61
2022/10/28 04:25:27;;;;;;;2.05;1.85;;;;;;;19.50;63.75;97735.31;10403730;28;20057;-61
2022/10/28 04:30:46;;;;;;;2.00;1.80;;;;;;;19.50;63.71;97735.31;10419309;28;20064;-61
2022/10/28 04:36:06;;;;;;;2.10;1.90;;;;;;;19.50;63.71;97735.31;10417747;28;20123;-61
2022/10/28 04:41:25;;;;;;;1.83;1.73;;;;;;;19.51;63.79;97733.41;10417187;28;20104;-62
2022/10/28 04:46:45;;;;;;;1.90;1.80;;;;;;;19.50;63.78;97738.03;10427902;28;20050;-60
2022/10/28 04:52:04;;;;;;;1.52;1.40;;;;;;;19.52;63.70;97726.91;10417476;28;20145;-61
2022/10/28 04:57:24;;;;;;;1.98;1.77;;;;;;;19.51;63.64;97719.91;10430283;28;20088;-60
2022/10/28 05:02:43;;;;;;;1.60;1.50;;;;;;;19.53;63.74;97715.00;10416507;28;20053;-60
2022/10/28 05:08:02;;;;;;;2.65;1.60;;;;;;;19.53;63.85;97715.78;10416592;28;20065;-60
2022/10/28 05:13:22;;;;;;;3.00;1.55;;;;;;;19.54;63.96;97709.28;10421638;28;20061;-62
2022/10/28 05:18:41;;;;;;;2.78;1.40;;;;;;;19.55;63.84;97710.88;10403929;28;20076;-61
2022/10/28 05:24:00;;;;;;;1.50;1.40;;;;;;;19.56;63.88;97711.69;10416073;28;20057;-62
2022/10/28 05:29:20;;;;;;;2.30;1.60;;;;;;;19.59;63.87;97721.91;10420002;28;20060;-62
2022/10/28 05:34:39;;;;;;;2.13;1.50;;;;;;;19.61;63.76;97721.59;10407882;28;20060;-61
2022/10/28 05:39:58;;;;;;;1.70;1.60;;;;;;;19.64;63.75;97723.69;10415391;28;20128;-61
2022/10/28 05:45:18;;;;;;;1.73;1.60;;;;;;;19.64;63.95;97721.81;10415318;28;20050;-62
2022/10/28 05:50:37;;;;;;;2.20;1.63;;;;;;;19.67;63.78;97720.38;10407940;28;20057;-61
2022/10/28 05:55:56;;;;;;;1.50;1.40;;;;;;;19.67;63.82;97715.78;10427796;28;20119;-62
2022/10/28 06:01:15;;;;;;;2.83;1.70;;;;;;;19.68;63.69;97714.69;10418642;28;20065;-62
2022/10/28 06:06:35;;;;;;;2.42;1.63;;;;;;;19.70;63.70;97722.50;10414675;28;20053;-63
2022/10/28 06:11:54;;;;;;;1.60;1.50;;;;;;;19.71;63.54;97719.50;10413854;28;20464;-62
2022/10/28 06:17:13;;;;;;;1.58;1.40;;;;;;;19.74;63.60;97726.22;10427115;28;20057;-62
2022/10/28 06:22:32;;;;;;;1.58;1.48;;;;;;;19.74;63.52;97740.53;10410984;28;20057;-61
2022/10/28 06:27:56;;;;;;;1.40;1.30;;;;;;;19.77;63.50;97732.94;10421411;28;20054;-62
2022/10/28 06:33:15;;;;;;;1.60;1.50;;;;;;;19.79;63.56;97734.22;10413819;28;20057;-61
2022/10/28 06:38:35;;;;;;;1.75;1.65;;;;;;;19.79;63.62;97731.50;10415337;28;20519;-62
2022/10/28 06:43:54;;;;;;;2.03;1.40;;;;;;;19.82;63.50;97739.03;10413815;28;20058;-62
2022/10/28 06:49:13;;;;;;;2.22;1.30;;;;;;;19.84;63.39;97742.22;10430468;28;20077;-62
2022/10/28 06:54:33;;;;;;;1.38;1.27;;;;;;;19.85;63.44;97738.41;10415702;28;20057;-62
2022/10/28 06:59:54;;;;;;;1.52;1.42;;;;;;;19.87;63.36;97743.53;10413135;28;20057;-61
2022/10/28 07:05:15;;;;;;;1.60;1.50;;;;;;;19.88;63.41;97754.03;10412078;28;20057;-60
2022/10/28 07:10:34;;;;;;;1.35;1.25;;;;;;;19.91;63.50;97745.31;10429575;28;20038;-55
2022/10/28 07:15:58;;;;;;;1.30;1.20;;;;;;;19.92;63.46;97746.91;10400461;28;20528;-54
2022/10/28 07:21:17;;;;;;;1.40;1.30;;;;;;;19.94;63.39;97755.53;10426116;28;20053;-54
2022/10/28 07:26:37;;;;;;;1.38;1.27;;;;;;;19.96;63.30;97755.22;10431487;28;20080;-54
2022/10/28 07:31:57;;;;;;;1.50;1.40;;;;;;;19.98;63.47;97765.75;10419918;28;20091;-53
2022/10/28 07:37:17;;;;;;;1.50;1.33;;;;;;;19.99;63.52;97778.16;10388988;28;20077;-59
2022/10/28 07:42:36;;;;;;;4.60;3.37;;;;;;;19.95;59.75;97795.00;7394685;28;10002034;-60
2022/10/28 07:47:56;;;;;;;5.45;4.20;;;;;;;19.85;57.82;97800.59;10338370;28;20677;-60
2022/10/28 07:53:15;;;;;;;3.40;2.30;;;;;;;19.89;60.20;97804.31;10338447;28;20058;-61
2022/10/28 07:58:35;;;;;;;3.58;2.50;;;;;;;19.97;60.74;97816.31;10351646;28;20109;-59
2022/10/28 08:03:55;;;;;;;2.42;2.15;;;;;;;20.00;60.79;97815.72;10338345;28;20062;-60
2022/10/28 08:09:15;;;;;;;3.13;2.70;;;;;;;20.03;60.94;97817.84;10337837;28;20053;-61
2022/10/28 08:14:35;;;;;;;5.47;4.97;;;;;;;19.79;54.67;97818.03;10337712;28;20058;-63
2022/10/28 08:19:54;;;;;;;5.47;4.97;;;;;;;19.50;52.80;97811.00;10351191;28;20059;-63
2022/10/28 08:25:13;;;;;;;8.63;5.30;;;;;;;19.27;52.21;97815.47;10338099;28;20479;-61
2022/10/28 08:30:33;;;;;;;6.00;4.53;;;;;;;19.37;54.57;97811.78;10337997;28;20058;-61
2022/10/28 08:35:53;;;;;;;4.80;4.22;;;;;;;19.59;54.25;97807.59;10350244;28;20418;-63
2022/10/28 08:41:24;;;;;;;5.38;3.88;;;;;;;19.67;54.01;97804.19;10351492;28;20108;-61
2022/10/28 08:46:50;;;;;;;5.85;3.53;;;;;;;19.77;54.65;97798.59;10316277;28;20503;-61
2022/10/28 08:52:24;;;;;;;6.50;4.15;;;;;;;19.85;55.16;97805.22;10309952;28;20054;-62
2022/10/28 08:57:48;;;;;;;3.80;3.22;;;;;;;19.89;56.18;97809.72;10297015;28;20051;-62
2022/10/28 09:03:10;;;;;;;6.28;3.13;;;;;;;19.94;56.40;97806.91;10296810;28;20059;-61
2022/10/28 09:08:34;;;;;;;4.43;3.40;;;;;;;19.95;56.65;97800.41;10309106;28;20125;-62
2022/10/28 09:14:12;;;;;;;7.85;3.67;;;;;;;19.98;56.96;97798.19;10269157;28;20055;-62
2022/10/28 09:20:13;;;;;;;4.90;3.28;;;;;;;20.01;57.30;97808.41;10256199;29;20055;-62
2022/10/28 09:25:40;;;;;;;5.53;3.30;;;;;;;20.01;57.62;97811.09;10255805;29;20055;-62
2022/10/28 09:31:21;;;;;;;5.20;3.40;;;;;;;20.02;57.97;97807.31;10255555;29;20055;-61
2022/10/28 09:37:13;;;;;;;5.68;3.25;;;;;;;20.04;58.27;97814.00;10255481;29;20419;-62
2022/10/28 09:42:38;;;;;;;5.10;3.15;;;;;;;20.06;58.39;97805.59;10302646;28;20062;-62
2022/10/28 09:48:05;;;;;;;5.00;3.30;;;;;;;20.06;58.70;97798.28;10303788;28;20102;-62
2022/10/28 09:53:31;;;;;;;4.20;3.35;;;;;;;20.08;58.91;97803.41;10280345;28;20133;-62
2022/10/28 09:58:52;;;;;;;3.60;3.10;;;;;;;20.07;59.03;97788.25;10294542;28;20058;-62
2022/10/28 10:04:18;;;;;;;3.85;3.08;;;;;;;20.08;59.40;97796.06;10279819;28;20065;-62
2022/10/28 10:09:38;;;;;;;3.65;3.28;;;;;;;20.08;59.58;97790.66;10288594;28;20054;-62
2022/10/28 10:14:57;;;;;;;4.90;3.50;;;;;;;20.09;59.79;97794.97;10333658;28;20068;-62
2022/10/28 10:20:19;;;;;;;4.65;3.10;;;;;;;20.10;59.96;97793.88;10333400;28;20054;-61
2022/10/28 10:25:38;;;;;;;4.22;3.20;;;;;;;20.11;60.09;97783.84;10333341;28;20564;-62
2022/10/28 10:31:03;;;;;;;3.88;2.78;;;;;;;20.12;60.30;97788.16;10333016;28;20533;-62
2022/10/28 10:36:27;;;;;;;3.50;2.90;;;;;;;20.11;60.36;97794.66;10337106;28;20418;-62
2022/10/28 10:41:46;;;;;;;4.40;2.78;;;;;;;20.12;60.43;97785.44;10344264;28;20422;-61
2022/10/28 10:47:05;;;;;;;4.78;2.95;;;;;;;20.13;60.58;97778.91;10349491;28;20069;-62
2022/10/28 10:52:27;;;;;;;3.05;2.70;;;;;;;20.13;60.69;97773.50;10332638;28;20062;-62
2022/10/28 10:57:47;;;;;;;3.60;2.60;;;;;;;20.13;60.37;97757.28;10333177;28;20109;-61
2022/10/28 11:03:16;;;;;;;3.45;2.70;;;;;;;20.14;60.79;97748.88;10341637;28;20070;-61
2022/10/28 11:08:40;;;;;;;4.68;2.80;;;;;;;20.15;60.71;97738.88;10326017;28;20050;-62
2022/10/28 11:14:11;;;;;;;3.05;2.75;;;;;;;20.14;60.92;97729.94;10326652;28;20112;-61
2022/10/28 11:19:35;;;;;;;4.43;2.90;;;;;;;20.15;61.04;97723.44;10353951;28;20054;-61
2022/10/28 11:25:31;;;;;;;3.83;2.78;;;;;;;20.14;61.11;97716.41;10340960;28;20054;-61
2022/10/28 11:31:17;;;;;;;3.60;2.72;;;;;;;20.15;61.27;97709.09;10339593;28;20063;-62
2022/10/28 11:36:47;;;;;;;4.07;2.70;;;;;;;20.15;61.17;97711.81;10340407;28;20450;-61
2022/10/28 11:42:23;;;;;;;3.47;2.75;;;;;;;20.15;61.34;97701.78;10353564;28;20065;-62
2022/10/28 11:47:53;;;;;;;3.50;2.40;;;;;;;20.15;61.29;97690.97;10351501;28;20065;-62
2022/10/28 11:53:25;;;;;;;3.13;2.78;;;;;;;20.15;61.35;97695.56;10352865;28;20081;-62
2022/10/28 11:58:44;;;;;;;3.45;2.50;;;;;;;20.14;61.53;97694.75;10339719;28;20054;-62
2022/10/28 12:04:18;;;;;;;3.45;2.35;;;;;;;20.15;61.47;97698.28;10339481;28;20141;-62
2022/10/28 12:09:51;;;;;;;4.93;2.60;;;;;;;20.15;61.65;97706.41;10336781;28;20078;-61
2022/10/28 12:15:24;;;;;;;3.35;2.65;;;;;;;20.15;61.59;97695.56;10337138;28;20046;-62
2022/10/28 12:21:03;;;;;;;3.25;2.38;;;;;;;20.14;61.66;97683.94;10337659;28;20066;-63
2022/10/28 12:26:32;;;;;;;2.72;2.25;;;;;;;20.15;61.52;97676.63;10338266;28;20149;-62
2022/10/28 12:31:58;;;;;;;3.47;2.30;;;;;;;20.15;61.71;97665.81;10351033;28;20105;-62
2022/10/28 12:37:27;;;;;;;3.10;2.53;;;;;;;20.15;61.67;97677.44;10338124;28;20121;-62
2022/10/28 12:42:54;;;;;;;3.17;2.42;;;;;;;20.15;61.73;97680.13;10369285;28;20045;-61
2022/10/28 12:48:28;;;;;;;2.63;2.22;;;;;;;20.15;61.68;97677.44;10345078;28;20402;-62
2022/10/28 12:53:54;;;;;;;2.88;2.30;;;;;;;20.15;61.82;97665.81;10337113;28;20058;-60
2022/10/28 12:59:19;;;;;;;2.85;2.38;;;;;;;20.14;61.83;97659.59;10337392;28;20130;-62
2022/10/28 13:04:39;;;;;;;3.90;2.35;;;;;;;20.14;62.10;97656.88;10335148;28;20249;-62
2022/10/28 13:10:05;;;;;;;4.22;2.50;;;;;;;20.15;61.88;97649.59;10345722;28;20457;-62
2022/10/28 13:15:37;;;;;;;2.67;2.33;;;;;;;20.16;61.96;97648.47;10336101;28;20058;-61
2022/10/28 13:21:18;;;;;;;3.20;2.40;;;;;;;20.15;61.90;97641.47;10334359;28;20059;-61
2022/10/28 13:26:41;;;;;;;3.47;2.30;;;;;;;20.14;61.91;97656.88;10335269;28;20533;-62
2022/10/28 13:32:00;;;;;;;2.70;2.20;;;;;;;20.14;61.99;97656.09;10335228;28;20549;-62
2022/10/28 13:37:22;;;;;;;3.75;2.22;;;;;;;20.14;62.00;97639.88;10334997;28;20517;-62
2022/10/28 13:42:41;;;;;;;3.45;2.17;;;;;;;20.14;61.87;97637.94;10353437;28;20064;-62
2022/10/28 13:48:29;;;;;;;3.17;2.03;;;;;;;20.14;62.03;97639.88;10344587;28;20105;-61
2022/10/28 13:53:55;;;;;;;2.17;1.90;;;;;;;20.14;62.10;97642.56;10334979;28;20054;-61
2022/10/28 13:59:41;;;;;;;3.00;2.45;;;;;;;20.12;62.11;97642.88;10333347;28;20066;-62
2022/10/28 14:05:05;;;;;;;2.30;2.10;;;;;;;20.12;62.11;97647.47;10319453;28;20522;-62
2022/10/28 14:10:32;;;;;;;2.22;2.03;;;;;;;20.13;62.11;97649.06;10327411;28;20057;-62
2022/10/28 14:16:13;;;;;;;2.20;2.00;;;;;;;20.12;62.19;97647.47;10333332;28;20058;-62
2022/10/28 14:21:49;;;;;;;2.58;1.92;;;;;;;20.13;62.10;97643.66;10333991;28;20058;-61
2022/10/28 14:27:10;;;;;;;2.58;2.08;;;;;;;20.11;62.10;97632.34;10333826;28;20069;-62
2022/10/28 14:32:29;;;;;;;2.78;2.30;;;;;;;20.10;62.23;97634.25;10332813;28;20059;-62
2022/10/28 14:38:07;;;;;;;2.15;1.95;;;;;;;20.11;62.14;97633.16;10332572;28;20517;-62
2022/10/28 14:43:49;;;;;;;2.15;1.80;;;;;;;20.10;62.13;97630.75;10372127;28;20058;-61
2022/10/28 14:50:04;;;;;;;2.10;1.90;;;;;;;20.10;62.18;97641.59;10333370;28;20054;-62
2022/10/28 14:55:26;;;;;;;2.10;1.90;;;;;;;20.09;62.19;97632.69;10262271;28;20065;-62
2022/10/28 15:01:15;;;;;;;2.72;2.22;;;;;;;20.10;62.26;97630.75;10332942;28;20443;-62
2022/10/28 15:06:41;;;;;;;;;;;;;;;20.09;62.27;97631.84;10332474;28;20560;-62
2022/10/28 15:12:09;;;;;;;2.05;1.85;;;;;;;20.08;62.15;97631.06;10332088;28;19972;-61
2022/10/28 15:17:38;;;;;;;2.42;2.22;;;;;;;20.07;62.15;97629.47;10332158;28;20062;-62
2022/10/28 15:23:17;;;;;;;2.63;1.90;;;;;;;20.07;62.15;97637.59;10332515;28;20113;-62
2022/10/28 15:28:37;;;;;;;1.83;1.73;;;;;;;20.06;62.17;97622.47;10332326;28;20062;-62
2022/10/28 15:33:56;;;;;;;2.00;1.85;;;;;;;20.07;62.17;97615.97;10317410;28;20065;-62
2022/10/28 15:39:17;;;;;;;2.17;1.88;;;;;;;20.06;62.26;97617.06;10336741;28;20050;-62
2022/10/28 15:44:37;;;;;;;2.17;1.98;;;;;;;20.06;62.17;97618.97;10369424;28;20065;-61
2022/10/28 15:50:04;;;;;;;2.05;1.85;;;;;;;20.05;62.18;97622.75;10339564;28;20058;-62
2022/10/28 15:55:29;;;;;;;1.85;1.73;;;;;;;20.05;62.16;97614.66;10339380;28;20066;-62
2022/10/28 16:00:53;;;;;;;2.05;1.80;;;;;;;20.05;61.99;97618.16;10352150;28;20561;-62
2022/10/28 16:06:39;;;;;;;2.15;1.85;;;;;;;20.03;62.08;97623.09;10351820;28;20050;-62
2022/10/28 16:12:02;;;;;;;2.25;1.90;;;;;;;20.03;61.99;97628.50;10337929;28;20062;-62
2022/10/28 16:17:25;;;;;;;1.83;1.73;;;;;;;20.04;61.99;97629.28;10338631;28;20054;-62
2022/10/28 16:22:45;;;;;;;2.53;1.75;;;;;;;20.02;61.99;97626.88;10337675;28;20126;-62
2022/10/28 16:28:12;;;;;;;1.95;1.70;;;;;;;20.01;61.89;97621.78;10338060;28;20058;-62
2022/10/28 16:33:33;;;;;;;2.25;1.88;;;;;;;20.02;62.02;97626.88;10323235;28;20062;-62
2022/10/28 16:38:52;;;;;;;2.78;1.95;;;;;;;20.02;61.92;97628.81;10339119;28;20054;-62
2022/10/28 16:44:16;;;;;;;2.13;1.77;;;;;;;20.01;61.84;97629.88;10378045;28;20104;-62
2022/10/28 16:49:35;;;;;;;2.03;1.83;;;;;;;20.01;61.93;97629.88;10296108;28;20082;-62
2022/10/28 16:54:56;;;;;;;1.90;1.73;;;;;;;20.00;61.82;97626.41;10282370;28;20055;-63
2022/10/28 17:00:15;;;;;;;1.98;1.77;;;;;;;19.99;61.76;97632.09;10295565;28;20521;-62
2022/10/28 17:05:35;;;;;;;1.98;1.80;;;;;;;19.99;61.72;97629.41;10296465;28;20066;-62
2022/10/28 17:10:54;;;;;;;2.30;1.80;;;;;;;19.98;61.74;97622.41;10329207;28;20050;-62
2022/10/28 17:16:13;;;;;;;1.88;1.77;;;;;;;19.98;61.71;97622.41;10335657;28;20569;-62
2022/10/28 17:21:33;;;;;;;1.83;1.60;;;;;;;19.96;61.60;97630.81;10336075;28;20058;-62
2022/10/28 17:26:52;;;;;;;1.70;1.60;;;;;;;19.96;61.74;97636.22;10335281;28;20058;-62
2022/10/28 17:32:12;;;;;;;1.83;1.60;;;;;;;19.95;61.61;97626.50;10334917;28;20055;-62
2022/10/28 17:37:33;;;;;;;1.98;1.80;;;;;;;19.95;61.66;97621.09;10335386;28;20101;-62
2022/10/28 17:42:56;;;;;;;2.20;2.00;;;;;;;19.94;61.56;97606.78;10369345;28;20058;-62
2022/10/28 17:48:16;;;;;;;2.13;1.88;;;;;;;19.92;61.58;97608.22;10341705;28;20054;-62
2022/10/28 17:53:36;;;;;;;1.90;1.70;;;;;;;19.92;61.54;97611.69;10334892;28;20062;-62
2022/10/28 17:58:55;;;;;;;1.75;1.65;;;;;;;19.92;61.58;97611.69;10334701;28;20058;-61
2022/10/28 18:04:15;;;;;;;1.70;1.60;;;;;;;19.91;61.57;97604.69;10334211;28;20062;-62
2022/10/28 18:09:34;;;;;;;2.00;1.80;;;;;;;19.90;61.55;97603.09;10343313;28;20557;-62
2022/10/28 18:14:55;;;;;;;2.40;1.92;;;;;;;19.91;61.66;97615.50;10347042;28;20454;-62
2022/10/28 18:20:14;;;;;;;1.88;1.73;;;;;;;19.89;61.53;97612.31;10333833;28;20086;-62
2022/10/28 18:25:33;;;;;;;2.00;1.70;;;;;;;19.90;61.53;97605.00;10333741;28;20062;-62
2022/10/28 18:30:52;;;;;;;1.92;1.73;;;;;;;19.88;61.59;97608.00;10332883;28;20058;-61
2022/10/28 18:36:14;;;;;;;2.05;1.88;;;;;;;19.87;61.53;97603.69;10332806;28;20573;-62
2022/10/28 18:41:37;;;;;;;2.13;1.92;;;;;;;19.88;61.59;97601.81;10355791;28;20057;-61
2022/10/28 18:46:57;;;;;;;2.08;1.60;;;;;;;19.86;61.46;97585.09;10351315;28;20058;-62
2022/10/28 18:52:16;;;;;;;1.73;1.63;;;;;;;19.85;61.31;97584.28;10345818;28;20418;-62
2022/10/28 18:57:36;;;;;;;1.80;1.70;;;;;;;19.85;61.37;97588.91;10331183;28;20058;-61
2022/10/28 19:02:56;;;;;;;2.10;1.90;;;;;;;19.84;61.50;97582.69;10332547;28;20054;-62
2022/10/28 19:08:15;;;;;;;2.00;1.80;;;;;;;19.84;61.57;97576.50;10317276;28;20495;-62
2022/10/28 19:13:36;;;;;;;2.30;2.10;;;;;;;19.84;61.52;97576.50;10331979;28;20506;-62
2022/10/28 19:18:57;;;;;;;2.08;1.90;;;;;;;19.82;61.47;97579.50;10332277;28;20065;-62
2022/10/28 19:24:17;;;;;;;2.22;1.90;;;;;;;19.82;61.56;97582.22;10340645;28;20456;-62
2022/10/28 19:29:36;;;;;;;2.05;1.92;;;;;;;19.82;61.40;97589.53;10340440;28;20050;-62
2022/10/28 19:34:55;;;;;;;2.50;2.30;;;;;;;19.82;61.46;97573.31;10353211;28;20061;-62
2022/10/28 19:40:15;;;;;;;2.20;1.88;;;;;;;19.80;61.43;97575.47;10352614;28;20096;-62
2022/10/28 19:45:35;;;;;;;2.00;1.75;;;;;;;19.80;61.37;97580.88;10369065;28;20410;-62
2022/10/28 19:50:54;;;;;;;2.30;2.10;;;;;;;19.78;61.31;97577.69;10339615;28;20050;-62
2022/10/28 19:56:17;;;;;;;2.40;1.98;;;;;;;19.78;61.43;97589.34;10339075;28;20065;-62
2022/10/28 20:01:37;;;;;;;2.35;1.88;;;;;;;19.78;61.30;97596.63;10338623;28;20580;-61
2022/10/28 20:06:58;;;;;;;2.10;1.90;;;;;;;19.77;61.39;97598.53;10338814;28;20066;-62
2022/10/28 20:12:18;;;;;;;2.50;2.10;;;;;;;19.77;61.43;97597.75;10337906;28;20061;-61
2022/10/28 20:17:37;;;;;;;2.47;2.00;;;;;;;19.76;61.39;97596.94;10338660;28;20058;-62
2022/10/28 20:22:56;;;;;;;2.88;1.90;;;;;;;19.75;61.38;97608.84;10338435;28;20054;-62
2022/10/28 20:28:16;;;;;;;2.30;2.10;;;;;;;19.74;61.39;97599.16;10337948;28;20410;-62
2022/10/28 20:33:37;;;;;;;2.13;1.92;;;;;;;19.74;61.32;97599.16;10335925;28;20567;-62
2022/10/28 20:39:01;;;;;;;2.63;2.20;;;;;;;19.74;61.33;97601.88;10339823;28;20090;-62
2022/10/28 20:44:20;;;;;;;2.20;2.00;;;;;;;19.74;61.41;97596.47;10376711;28;20058;-61
2022/10/28 20:49:41;;;;;;;2.10;1.83;;;;;;;19.73;61.34;97606.44;10350305;28;20050;-62
2022/10/28 20:55:00;;;;;;;2.25;2.05;;;;;;;19.72;61.38;97598.66;10336271;28;20568;-62
2022/10/28 21:00:19;;;;;;;1.88;1.77;;;;;;;19.71;61.33;97591.63;10336978;28;20125;-61
2022/10/28 21:05:40;;;;;;;2.10;1.80;;;;;;;19.70;61.31;97584.63;10336351;28;20069;-62
2022/10/28 21:11:02;;;;;;;2.00;1.80;;;;;;;19.69;61.30;97573.00;10335997;28;20058;-62
2022/10/28 21:16:21;;;;;;;2.33;1.95;;;;;;;19.69;61.33;97591.13;10336393;28;20062;-61
2022/10/28 21:21:40;;;;;;;2.33;1.98;;;;;;;19.69;61.35;97591.91;10336198;28;20057;-62
2022/10/28 21:27:00;;;;;;;2.08;1.88;;;;;;;19.68;61.30;97600.31;10335773;28;20426;-62
2022/10/28 21:32:20;;;;;;;2.20;2.00;;;;;;;19.68;61.29;97593.03;10335229;28;20059;-60
2022/10/28 21:37:39;;;;;;;2.00;1.90;;;;;;;19.66;61.36;97595.25;10335016;28;20054;-62
2022/10/28 21:42:58;;;;;;;2.30;2.10;;;;;;;19.66;61.20;97591.72;10370108;28;20064;-61
2022/10/28 21:48:18;;;;;;;2.30;2.00;;;;;;;19.66;61.35;97589.03;10340488;28;20567;-62
2022/10/28 21:53:37;;;;;;;2.10;1.90;;;;;;;19.66;61.46;97580.91;10334933;28;20395;-61
2022/10/28 21:58:57;;;;;;;2.10;1.90;;;;;;;19.65;61.26;97580.13;10347564;28;20063;-62
2022/10/28 22:04:16;;;;;;;2.35;2.15;;;;;;;19.65;61.20;97582.03;10333866;28;20529;-62
2022/10/28 22:09:35;;;;;;;2.30;2.10;;;;;;;19.64;61.29;97586.66;10333956;28;20058;-61
2022/10/28 22:14:55;;;;;;;2.20;1.98;;;;;;;19.63;61.35;97579.63;10334126;28;20069;-62
2022/10/28 22:20:14;;;;;;;2.47;2.00;;;;;;;19.63;61.22;97565.31;10346882;28;20470;-61
2022/10/28 22:25:33;;;;;;;2.38;2.17;;;;;;;19.63;61.27;97587.75;10333771;28;20065;-62
2022/10/28 22:31:00;;;;;;;1.92;1.83;;;;;;;19.62;61.32;97590.75;10333503;28;20058;-62
2022/10/28 22:36:21;;;;;;;2.20;2.00;;;;;;;19.61;61.30;97589.94;10318729;28;20062;-62
2022/10/28 22:41:40;;;;;;;2.17;1.98;;;;;;;19.61;61.28;97595.34;10357445;28;20406;-62
2022/10/28 22:47:00;;;;;;;2.42;2.13;;;;;;;19.60;61.26;97585.66;10350720;28;20066;-61
2022/10/28 22:52:19;;;;;;;2.33;2.13;;;;;;;19.60;61.25;97582.13;10332288;28;20126;-62
2022/10/28 22:57:38;;;;;;;1.90;1.80;;;;;;;19.59;61.37;97581.34;10331768;28;20096;-62
2022/10/28 23:02:57;;;;;;;2.00;1.90;;;;;;;19.59;61.33;97592.16;10332883;28;20062;-61
2022/10/28 23:08:17;;;;;;;3.13;2.30;;;;;;;19.58;61.31;97589.75;10332621;28;20413;-61
2022/10/28 23:13:36;;;;;;;3.20;2.30;;;;;;;19.59;61.27;97599.47;10291916;28;20086;-61
2022/10/28 23:18:56;;;;;;;2.28;2.08;;;;;;;19.58;61.21;97606.75;10292440;28;20458;-61
2022/10/28 23:24:15;;;;;;;2.10;1.90;;;;;;;19.57;61.40;97618.69;10304385;28;20069;-63
2022/10/28 23:29:35;;;;;;;2.38;2.08;;;;;;;19.58;61.30;97614.06;10292140;28;20066;-61
2022/10/28 23:34:54;;;;;;;2.00;1.90;;;;;;;19.56;61.34;97608.97;10292078;28;20054;-61
2022/10/28 23:40:13;;;;;;;1.90;1.80;;;;;;;19.55;61.32;97602.78;10291730;28;20109;-61
2022/10/28 23:45:33;;;;;;;2.10;1.90;;;;;;;19.54;61.26;97609.28;10262584;28;20054;-62
2022/10/28 23:50:52;;;;;;;1.98;1.77;;;;;;;19.53;61.22;97596.88;10291157;28;20055;-62
2022/10/28 23:56:12;;;;;;;2.22;1.98;;;;;;;19.54;61.17;97589.56;10291684;28;20063;-62
